Time;durP1;ratioP1;P1;durP2;ratioP2;P2;SDS_P1;SDS_P2;PMS_P1;PMS_P2;Temp;Humidity;BMP_temperature;BMP_pressure;BME280_temperature;BME280_humidity;BME280_pressure;Samples;Min_cycle;Max_cycle;Signal;HPM_P1;HPM_P2
2022/03/31 00:01:09;;;;;;;31.23;17.20;;;;;;;9.67;63.12;97384.31;5160949;28;20048;-68
2022/03/31 00:03:59;;;;;;;31.90;18.42;;;;;;;9.69;63.48;97382.31;5149347;28;20493;-68
2022/03/31 00:06:50;;;;;;;30.52;17.67;;;;;;;9.53;63.10;97367.38;5164304;28;20054;-68
2022/03/31 00:09:40;;;;;;;30.83;16.95;;;;;;;9.58;63.19;97382.72;5149660;28;20104;-68
2022/03/31 00:12:31;;;;;;;30.17;16.90;;;;;;;9.61;62.81;97375.25;5164440;28;20112;-68
2022/03/31 00:15:23;;;;;;;30.67;17.35;;;;;;;9.39;63.93;97373.44;5143212;28;20066;-68
2022/03/31 00:18:14;;;;;;;32.00;17.75;;;;;;;9.30;64.30;97377.94;5155760;28;20462;-69
2022/03/31 00:21:04;;;;;;;29.73;17.05;;;;;;;9.38;64.18;97374.44;5164236;28;20156;-68
2022/03/31 00:23:55;;;;;;;27.48;16.45;;;;;;;9.49;62.97;97366.06;5164026;28;20188;-68
2022/03/31 00:26:45;;;;;;;28.63;16.38;;;;;;;9.28;62.95;97350.03;5164006;28;20137;-68
2022/03/31 00:29:35;;;;;;;27.67;16.10;;;;;;;9.60;62.23;97370.97;5160807;28;20563;-68
2022/03/31 00:32:25;;;;;;;26.85;16.42;;;;;;;9.50;62.89;97353.66;5163901;28;20057;-68
2022/03/31 00:35:15;;;;;;;27.80;15.68;;;;;;;9.27;63.63;97348.38;5142865;28;20149;-68
2022/03/31 00:38:05;;;;;;;27.95;16.80;;;;;;;9.35;63.66;97341.22;5154124;28;20042;-68
2022/03/31 00:40:56;;;;;;;25.15;15.43;;;;;;;9.47;62.56;97348.72;5163693;28;20054;-68
2022/03/31 00:43:46;;;;;;;25.77;15.50;;;;;;;9.65;61.84;97349.25;5163483;28;20061;-69
2022/03/31 00:46:45;;;;;;;24.63;15.27;;;;;;;9.49;61.71;97352.03;5163723;28;20097;-69
2022/03/31 00:49:35;;;;;;;27.60;14.90;;;;;;;9.33;61.25;97348.50;5159244;28;20076;-69
2022/03/31 00:52:26;;;;;;;23.52;15.43;;;;;;;9.22;62.52;97343.63;5135107;28;20050;-69
2022/03/31 00:55:18;;;;;;;25.08;15.18;;;;;;;9.27;62.16;97338.66;5163322;28;20078;-69
2022/03/31 00:58:09;;;;;;;25.17;15.18;;;;;;;9.28;62.59;97335.00;5163309;28;20687;-69
2022/03/31 01:01:00;;;;;;;24.88;15.07;;;;;;;9.18;63.12;97331.75;5163541;28;20046;-68
2022/03/31 01:03:51;;;;;;;26.98;15.85;;;;;;;9.26;62.67;97330.88;5163173;28;20169;-69
2022/03/31 01:06:44;;;;;;;25.60;16.08;;;;;;;9.02;63.42;97326.56;5163367;28;20053;-69
2022/03/31 01:09:35;;;;;;;25.40;15.90;;;;;;;8.78;65.10;97322.25;5163802;28;20054;-69
2022/03/31 01:12:25;;;;;;;25.77;15.95;;;;;;;9.04;63.47;97324.56;5147774;28;20050;-69
2022/03/31 01:15:20;;;;;;;24.90;15.98;;;;;;;8.98;63.72;97327.94;5163137;28;20069;-68
2022/03/31 01:18:10;;;;;;;28.38;16.77;;;;;;;8.93;63.91;97321.31;5162305;28;20051;-68
2022/03/31 01:21:02;;;;;;;27.52;16.02;;;;;;;8.68;64.94;97319.81;5163288;28;20050;-68
2022/03/31 01:23:54;;;;;;;27.17;16.33;;;;;;;8.85;64.32;97317.91;5162981;28;20189;-68
2022/03/31 01:26:45;;;;;;;30.75;18.27;;;;;;;8.91;64.13;97323.34;5157304;28;20414;-68
2022/03/31 01:29:36;;;;;;;28.50;17.05;;;;;;;8.79;64.75;97315.97;5162989;28;20532;-67
2022/03/31 01:32:27;;;;;;;29.55;17.13;;;;;;;9.11;63.84;97307.03;5162633;28;20093;-68
2022/03/31 01:35:17;;;;;;;28.60;16.85;;;;;;;8.68;64.93;97302.16;5162929;28;20065;-68
2022/03/31 01:38:07;;;;;;;30.20;17.10;;;;;;;8.79;64.77;97308.84;5162622;28;20077;-68
2022/03/31 01:40:59;;;;;;;28.50;17.60;;;;;;;8.78;64.08;97317.78;5162357;28;20535;-68
2022/03/31 01:43:50;;;;;;;28.27;16.92;;;;;;;8.78;64.69;97309.88;5162875;28;20081;-68
2022/03/31 01:46:40;;;;;;;30.48;17.55;;;;;;;8.66;64.72;97303.31;5162278;28;20058;-68
2022/03/31 01:49:31;;;;;;;32.47;18.48;;;;;;;8.87;65.10;97310.63;5149130;28;20074;-68
2022/03/31 01:52:24;;;;;;;32.33;18.83;;;;;;;8.62;65.87;97308.13;5162224;28;20599;-67
2022/03/31 01:55:14;;;;;;;35.25;18.48;;;;;;;8.54;65.76;97291.47;5161927;28;20093;-67
2022/03/31 01:58:04;;;;;;;30.52;18.40;;;;;;;8.60;65.59;97301.34;5148533;28;20688;-68
2022/03/31 02:00:55;;;;;;;33.58;18.35;;;;;;;8.57;66.07;97299.06;5162325;28;20117;-69
2022/03/31 02:03:45;;;;;;;30.70;18.73;;;;;;;8.56;65.78;97300.88;5162209;28;20062;-68
2022/03/31 02:06:35;;;;;;;29.52;19.13;;;;;;;8.43;65.43;97297.97;5147141;28;20065;-68
2022/03/31 02:09:26;;;;;;;33.80;18.70;;;;;;;8.19;66.21;97290.94;5162427;28;20192;-68
2022/03/31 02:12:16;;;;;;;30.45;18.70;;;;;;;7.85;66.74;97281.47;5161918;28;20582;-68
2022/03/31 02:15:07;;;;;;;31.60;19.02;;;;;;;7.93;67.93;97280.63;5162024;28;20057;-68
2022/03/31 02:17:57;;;;;;;31.15;18.85;;;;;;;8.03;65.06;97275.97;5161315;28;20123;-68
2022/03/31 02:20:47;;;;;;;31.52;18.75;;;;;;;7.97;65.34;97256.34;5162112;28;20591;-68
2022/03/31 02:23:38;;;;;;;28.10;17.73;;;;;;;7.78;65.83;97277.84;5161685;28;20518;-68
2022/03/31 02:26:28;;;;;;;34.95;19.48;;;;;;;7.72;66.18;97267.97;5160948;28;20148;-68
2022/03/31 02:29:19;;;;;;;31.52;20.05;;;;;;;7.69;67.04;97263.84;5161931;28;20058;-68
2022/03/31 02:32:09;;;;;;;34.25;19.05;;;;;;;7.64;65.93;97254.78;5161936;28;20477;-68
2022/03/31 02:35:00;;;;;;;31.52;19.42;;;;;;;7.58;65.78;97235.19;5138672;28;20081;-69
2022/03/31 02:37:50;;;;;;;33.83;19.65;;;;;;;7.75;66.28;97260.56;5161741;28;20093;-68
2022/03/31 02:40:42;;;;;;;33.38;19.95;;;;;;;7.74;65.62;97264.16;5140455;28;20137;-68
2022/03/31 02:43:32;;;;;;;33.50;20.17;;;;;;;7.72;66.62;97257.44;5157679;28;20208;-68
2022/03/31 02:46:23;;;;;;;31.77;19.00;;;;;;;7.75;67.00;97251.81;5155132;28;20134;-68
2022/03/31 02:49:15;;;;;;;35.72;20.45;;;;;;;7.69;66.40;97241.94;5140552;28;20089;-68
2022/03/31 02:52:07;;;;;;;31.52;19.23;;;;;;;7.76;66.72;97250.81;5160107;28;20056;-68
2022/03/31 02:58:06;;;;;;;33.60;19.40;;;;;;;7.74;66.58;97250.97;5161113;28;20061;-68
2022/03/31 03:00:57;;;;;;;38.15;20.13;;;;;;;7.56;67.99;97241.63;5161478;28;20061;-68
2022/03/31 03:03:49;;;;;;;34.88;20.02;;;;;;;7.87;66.20;97247.00;5146808;28;20057;-68
2022/03/31 03:06:39;;;;;;;34.92;20.85;;;;;;;7.79;66.25;97233.84;5156756;28;20061;-68
2022/03/31 03:09:29;;;;;;;33.13;20.02;;;;;;;7.35;68.06;97245.63;5147040;28;20061;-68
2022/03/31 03:12:19;;;;;;;36.30;21.65;;;;;;;7.30;67.72;97221.56;5161171;28;20050;-68
2022/03/31 03:15:10;;;;;;;34.78;21.23;;;;;;;7.53;67.13;97221.69;5161129;28;20109;-68
2022/03/31 03:18:01;;;;;;;34.35;20.48;;;;;;;7.66;66.51;97231.72;5131051;28;20141;-68
2022/03/31 03:20:51;;;;;;;35.78;21.42;;;;;;;7.76;66.68;97232.34;5161292;28;20101;-68
2022/03/31 03:23:41;;;;;;;36.88;22.88;;;;;;;7.73;68.08;97230.06;5137660;28;20046;-68
2022/03/31 03:26:31;;;;;;;38.60;22.23;;;;;;;7.76;67.14;97232.34;5161221;28;20105;-68
2022/03/31 03:29:21;;;;;;;34.55;21.35;;;;;;;7.72;67.03;97217.84;5126604;28;20061;-69
2022/03/31 03:32:14;;;;;;;38.92;22.55;;;;;;;7.82;66.34;97225.59;5157842;28;20053;-68
2022/03/31 03:35:09;;;;;;;37.58;20.65;;;;;;;7.61;66.99;97223.47;5158274;28;20117;-68
2022/03/31 03:38:00;;;;;;;41.25;23.08;;;;;;;7.75;66.59;97228.91;5164446;28;20124;-68
2022/03/31 03:40:50;;;;;;;37.75;21.23;;;;;;;7.82;66.21;97231.69;5164324;28;20058;-68
2022/03/31 03:43:41;;;;;;;36.22;21.67;;;;;;;7.69;66.68;97228.75;5176289;28;20057;-68
2022/03/31 03:46:31;;;;;;;35.90;21.50;;;;;;;7.76;66.32;97227.06;5168653;28;20057;-68
2022/03/31 03:49:21;;;;;;;39.75;22.50;;;;;;;7.76;65.73;97205.97;5172267;28;20638;-68
2022/03/31 03:52:12;;;;;;;36.70;21.75;;;;;;;7.93;65.79;97218.09;5165073;28;20413;-68
2022/03/31 03:55:02;;;;;;;37.75;21.70;;;;;;;7.73;66.69;97222.94;5164541;28;20117;-68
2022/03/31 03:57:53;;;;;;;38.50;22.08;;;;;;;7.65;66.48;97214.22;5164505;28;20050;-68
2022/03/31 04:00:44;;;;;;;34.15;21.35;;;;;;;7.63;66.47;97217.03;5164574;28;20062;-68
2022/03/31 04:03:35;;;;;;;39.35;20.98;;;;;;;7.58;66.24;97203.53;5164440;28;20453;-68
2022/03/31 04:06:25;;;;;;;36.13;21.60;;;;;;;7.67;66.52;97217.53;5164741;28;20497;-68
2022/03/31 04:09:15;;;;;;;35.67;21.05;;;;;;;7.87;65.39;97212.69;5164577;28;20058;-68
2022/03/31 04:12:06;;;;;;;36.13;21.38;;;;;;;7.85;66.13;97210.22;5164420;28;20098;-68
2022/03/31 04:14:56;;;;;;;37.92;21.38;;;;;;;7.74;66.30;97207.94;5163914;28;20554;-69
2022/03/31 04:17:47;;;;;;;37.85;22.40;;;;;;;7.70;66.34;97207.47;5171083;28;20112;-68
2022/03/31 04:20:36;;;;;;;38.33;22.50;;;;;;;7.79;65.69;97215.38;5160903;28;20146;-72
2022/03/31 04:23:27;;;;;;;35.63;21.90;;;;;;;7.61;65.81;97212.94;5164375;28;20062;-69
2022/03/31 04:26:17;;;;;;;36.88;21.60;;;;;;;7.76;66.59;97216.53;5163920;28;20638;-68
2022/03/31 04:29:09;;;;;;;37.92;21.65;;;;;;;7.80;66.05;97215.19;5150231;28;20050;-68
2022/03/31 04:31:59;;;;;;;33.70;20.80;;;;;;;7.76;65.72;97213.88;5164051;28;20038;-68
2022/03/31 04:34:49;;;;;;;36.42;21.63;;;;;;;7.85;65.92;97209.41;5163623;28;20062;-69
2022/03/31 04:37:39;;;;;;;36.88;20.67;;;;;;;7.83;65.65;97200.84;5149098;28;20054;-68
2022/03/31 04:40:30;;;;;;;36.83;21.52;;;;;;;7.67;65.73;97189.34;5157406;28;20046;-68
2022/03/31 04:43:21;;;;;;;35.13;19.98;;;;;;;7.84;65.48;97203.28;5163047;28;20050;-68
2022/03/31 04:46:11;;;;;;;35.70;20.83;;;;;;;7.81;65.18;97202.81;5158859;28;20056;-70
2022/03/31 04:49:02;;;;;;;37.97;21.45;;;;;;;7.92;65.77;97208.56;5158628;28;20077;-67
2022/03/31 04:51:52;;;;;;;37.67;22.00;;;;;;;7.88;65.59;97203.78;5163486;28;20523;-68
2022/03/31 04:54:45;;;;;;;36.63;21.05;;;;;;;7.86;65.69;97201.31;5164104;28;20069;-68
2022/03/31 04:57:36;;;;;;;35.37;21.30;;;;;;;7.85;66.17;97186.47;5163643;28;20065;-67
2022/03/31 05:00:27;;;;;;;36.65;21.75;;;;;;;8.02;65.74;97205.72;5148689;28;20145;-67
2022/03/31 05:03:16;;;;;;;37.85;21.33;;;;;;;7.87;66.45;97189.75;5164373;28;20062;-67
2022/03/31 05:06:07;;;;;;;37.60;21.17;;;;;;;8.02;65.67;97205.72;5146322;28;20058;-67
2022/03/31 05:08:58;;;;;;;40.47;20.77;;;;;;;8.07;65.96;97200.72;5148590;28;20056;-67
2022/03/31 05:11:49;;;;;;;39.28;20.90;;;;;;;7.97;64.71;97198.28;5162306;28;20046;-68
2022/03/31 05:14:40;;;;;;;33.42;21.42;;;;;;;7.69;65.13;97170.72;5161254;28;20061;-68
2022/03/31 05:17:35;;;;;;;37.55;21.83;;;;;;;8.02;64.59;97191.69;5160657;28;20050;-68
2022/03/31 05:20:25;;;;;;;35.55;20.58;;;;;;;7.90;64.89;97181.50;5162854;28;20144;-68
2022/03/31 05:23:15;;;;;;;35.30;19.88;;;;;;;7.86;65.65;97190.75;5162058;28;20053;-68
2022/03/31 05:26:06;;;;;;;36.00;21.00;;;;;;;7.74;65.16;97192.13;5159298;28;20057;-68
2022/03/31 05:28:56;;;;;;;40.72;20.83;;;;;;;7.87;64.91;97189.75;5162360;28;20125;-68
2022/03/31 05:31:48;;;;;;;33.45;20.63;;;;;;;7.70;64.74;97198.72;5162143;28;20050;-65
2022/03/31 05:34:38;;;;;;;35.63;21.55;;;;;;;7.90;64.11;97193.88;5141425;28;20106;-65
2022/03/31 05:37:28;;;;;;;35.28;21.25;;;;;;;7.86;64.55;97184.66;5160792;28;20441;-66
2022/03/31 05:40:18;;;;;;;39.45;22.00;;;;;;;7.71;65.60;97187.16;5163232;28;20588;-65
2022/03/31 05:43:08;;;;;;;39.95;21.77;;;;;;;7.46;65.74;97186.44;5162591;28;20058;-65
2022/03/31 05:46:03;;;;;;;37.75;21.55;;;;;;;7.61;64.58;97183.91;5161260;28;20061;-65
2022/03/31 05:48:53;;;;;;;37.70;21.45;;;;;;;7.63;65.17;97184.56;5147846;28;20199;-65
2022/03/31 05:51:43;;;;;;;38.67;22.00;;;;;;;7.81;65.73;97190.44;5147082;28;20057;-67
2022/03/31 05:54:34;;;;;;;36.08;20.67;;;;;;;7.63;65.25;97185.41;5151360;28;20472;-67
2022/03/31 05:57:24;;;;;;;39.15;22.13;;;;;;;7.89;65.50;97182.50;5162400;28;20139;-65
2022/03/31 06:00:17;;;;;;;40.80;22.42;;;;;;;8.06;65.80;97185.06;5158774;28;20528;-65
2022/03/31 06:03:07;;;;;;;37.17;21.98;;;;;;;8.06;65.31;97187.72;5141572;28;20421;-65
2022/03/31 06:05:58;;;;;;;36.78;21.45;;;;;;;8.08;65.04;97186.56;5157931;28;20520;-68
2022/03/31 06:08:50;;;;;;;39.38;22.45;;;;;;;8.14;64.47;97188.47;5147156;28;20085;-67
2022/03/31 06:11:41;;;;;;;36.10;21.02;;;;;;;8.05;65.55;97178.16;5136959;28;20050;-67
2022/03/31 06:14:31;;;;;;;39.58;22.50;;;;;;;8.17;65.13;97188.13;5159767;28;20050;-67
2022/03/31 06:17:21;;;;;;;35.88;20.90;;;;;;;8.28;64.18;97184.31;5161869;28;20555;-67
2022/03/31 06:20:12;;;;;;;34.75;20.73;;;;;;;8.24;63.99;97172.44;5161657;28;20062;-67
2022/03/31 06:23:03;;;;;;;40.78;22.55;;;;;;;8.35;62.97;97190.53;5156558;28;20525;-67
2022/03/31 06:25:53;;;;;;;38.03;21.38;;;;;;;8.50;63.24;97187.97;5161783;28;20070;-67
2022/03/31 06:28:43;;;;;;;35.70;21.27;;;;;;;8.31;63.73;97177.84;5142484;28;20061;-67
2022/03/31 06:31:35;;;;;;;38.50;21.00;;;;;;;8.31;63.91;97170.75;5150969;28;20125;-67
2022/03/31 06:34:26;;;;;;;36.95;21.00;;;;;;;7.94;64.34;97171.41;5161418;28;20050;-67
2022/03/31 06:37:17;;;;;;;40.80;21.98;;;;;;;8.23;63.91;97182.16;5161191;28;20519;-68
2022/03/31 06:40:09;;;;;;;38.00;21.83;;;;;;;8.02;63.24;97174.03;5161614;28;20305;-67
2022/03/31 06:43:00;;;;;;;34.70;20.70;;;;;;;8.06;64.12;97174.53;5159868;28;20516;-66
2022/03/31 06:45:50;;;;;;;37.67;21.58;;;;;;;8.09;64.06;97174.19;5156942;28;20143;-67
2022/03/31 06:48:42;;;;;;;37.20;21.83;;;;;;;8.26;63.07;97170.44;5155329;28;20061;-66
2022/03/31 06:51:32;;;;;;;35.97;21.13;;;;;;;8.36;63.92;97173.69;5159976;28;20528;-67
2022/03/31 06:54:22;;;;;;;42.72;23.58;;;;;;;8.35;64.72;97174.69;5160962;28;20050;-66
2022/03/31 06:57:12;;;;;;;40.22;22.02;;;;;;;8.43;63.75;97158.00;5157804;28;20059;-67
2022/03/31 07:00:04;;;;;;;40.05;22.48;;;;;;;8.53;64.18;97169.16;5132913;28;20061;-66
2022/03/31 07:02:55;;;;;;;38.65;22.40;;;;;;;8.67;63.83;97168.38;5148418;28;20101;-66
2022/03/31 07:05:45;;;;;;;40.58;21.92;;;;;;;8.79;63.70;97171.44;5140172;28;20185;-66
2022/03/31 07:08:36;;;;;;;40.28;23.48;;;;;;;8.79;62.75;97168.78;5145824;28;20436;-66
2022/03/31 07:11:26;;;;;;;39.50;23.05;;;;;;;8.81;63.50;97169.44;5162167;28;20412;-66
2022/03/31 07:14:16;;;;;;;38.40;21.75;;;;;;;8.68;62.81;97158.66;5165788;28;20046;-66
2022/03/31 07:17:06;;;;;;;41.72;22.45;;;;;;;8.57;63.07;97166.97;5165336;28;20141;-66
2022/03/31 07:19:56;;;;;;;35.45;20.55;;;;;;;8.57;62.39;97167.78;5165614;28;20081;-66
2022/03/31 07:22:47;;;;;;;39.08;22.80;;;;;;;8.74;63.87;97160.59;5147785;28;20046;-66
2022/03/31 07:25:37;;;;;;;41.40;22.55;;;;;;;8.52;63.46;97164.06;5165188;28;20520;-66
2022/03/31 07:28:28;;;;;;;36.53;20.50;;;;;;;8.59;64.15;97163.16;5164075;28;20081;-66
2022/03/31 07:31:18;;;;;;;40.20;22.35;;;;;;;8.67;63.52;97160.44;5164684;28;20180;-66
2022/03/31 07:34:08;;;;;;;37.17;21.63;;;;;;;8.71;63.24;97155.66;5165290;28;20422;-66
2022/03/31 07:37:00;;;;;;;39.97;23.05;;;;;;;8.70;62.98;97160.09;5164982;28;20505;-66
2022/03/31 07:39:50;;;;;;;38.55;22.48;;;;;;;8.69;62.68;97147.91;5149875;28;20057;-66
2022/03/31 07:42:40;;;;;;;42.20;22.25;;;;;;;8.73;63.36;97137.78;5164620;28;20057;-67
2022/03/31 07:45:34;;;;;;;36.35;21.77;;;;;;;8.80;62.15;97153.75;5162282;28;20412;-67
2022/03/31 07:48:24;;;;;;;39.42;22.83;;;;;;;8.77;62.47;97144.34;5121613;28;20582;-66
2022/03/31 07:51:14;;;;;;;38.47;21.25;;;;;;;8.80;62.50;97143.19;5164477;28;20088;-67
2022/03/31 07:54:04;;;;;;;40.65;23.83;;;;;;;9.01;63.30;97134.59;5164535;28;20061;-67
2022/03/31 07:56:55;;;;;;;40.33;22.50;;;;;;;8.96;62.49;97145.69;5153047;28;20109;-67
2022/03/31 07:59:45;;;;;;;43.75;23.75;;;;;;;8.97;62.12;97149.97;5164648;28;20539;-67
2022/03/31 08:02:35;;;;;;;38.10;22.27;;;;;;;9.26;61.12;97145.75;5164125;28;20058;-66
2022/03/31 08:05:30;;;;;;;37.80;21.83;;;;;;;8.98;61.26;97145.53;5153235;28;20478;-66
2022/03/31 08:08:20;;;;;;;38.58;21.23;;;;;;;8.67;63.17;97149.06;5164043;28;20200;-67
2022/03/31 08:11:11;;;;;;;42.03;22.70;;;;;;;8.24;65.92;97141.59;5164137;28;20046;-67
2022/03/31 08:14:01;;;;;;;40.90;22.98;;;;;;;8.71;63.17;97142.44;5162856;28;20086;-66
2022/03/31 08:16:52;;;;;;;40.97;22.75;;;;;;;9.16;62.08;97143.38;5159960;28;20184;-66
2022/03/31 08:19:43;;;;;;;38.67;22.25;;;;;;;8.62;62.87;97132.94;5163724;28;20069;-67
2022/03/31 08:22:33;;;;;;;42.38;22.77;;;;;;;9.01;62.88;97124.03;5163241;28;20414;-67
2022/03/31 08:25:25;;;;;;;37.45;22.08;;;;;;;9.30;62.34;97137.25;5149112;28;20061;-66
2022/03/31 08:28:15;;;;;;;40.83;22.92;;;;;;;9.13;64.09;97112.81;5157909;28;20062;-65
2022/03/31 08:31:05;;;;;;;39.10;22.98;;;;;;;9.56;62.42;97142.13;5163521;28;20065;-66
2022/03/31 08:33:55;;;;;;;40.75;23.58;;;;;;;9.79;61.18;97134.06;5163803;28;20291;-66
2022/03/31 08:36:45;;;;;;;36.85;21.92;;;;;;;10.11;60.45;97129.38;5164107;28;20104;-66
2022/03/31 08:39:36;;;;;;;39.35;22.63;;;;;;;9.74;60.72;97125.06;5163977;28;20059;-66
2022/03/31 08:43:02;;;;;;;35.58;21.75;;;;;;;9.98;60.97;97139.81;5164090;28;20047;-66
2022/03/31 08:45:55;;;;;;;35.45;21.40;;;;;;;9.84;59.86;97129.06;5137482;28;20098;-84
2022/03/31 08:48:45;;;;;;;36.13;21.90;;;;;;;9.71;60.25;97097.13;5135587;28;20073;-84
2022/03/31 08:51:35;;;;;;;38.67;21.52;;;;;;;9.79;59.95;97107.59;5124492;29;20061;-83
2022/03/31 08:54:25;;;;;;;40.03;22.73;;;;;;;9.79;59.91;97112.91;5108040;29;20062;-83
2022/03/31 08:57:16;;;;;;;37.55;22.70;;;;;;;9.76;61.32;97065.63;5134931;28;20048;-83
2022/03/31 09:00:24;;;;;;;38.45;21.90;;;;;;;10.20;60.36;97103.56;5126410;29;20047;-84
2022/03/31 09:03:16;;;;;;;36.28;21.58;;;;;;;9.47;60.80;97090.31;5111495;29;20051;-84
2022/03/31 09:06:10;;;;;;;39.90;22.13;;;;;;;9.77;62.28;97108.81;5138937;28;20051;-84
2022/03/31 09:09:04;;;;;;;39.63;21.10;;;;;;;10.12;59.34;97120.41;5124153;29;20063;-84
2022/03/31 09:11:55;;;;;;;36.17;21.38;;;;;;;9.76;60.31;97102.69;5121780;29;20061;-84
2022/03/31 09:15:13;;;;;;;36.85;21.42;;;;;;;9.81;59.96;97094.19;5134015;28;20151;-84
2022/03/31 09:18:03;;;;;;;39.22;22.55;;;;;;;9.81;59.80;97097.66;5121476;28;20067;-85
2022/03/31 09:20:58;;;;;;;39.63;20.83;;;;;;;9.99;59.32;97114.97;5105164;29;20134;-84
2022/03/31 09:23:48;;;;;;;35.97;21.65;;;;;;;10.05;59.93;97104.44;5109016;29;20566;-84
2022/03/31 09:26:45;;;;;;;38.53;21.52;;;;;;;10.38;59.93;97117.25;5122166;29;20548;-84
2022/03/31 09:29:35;;;;;;;34.33;21.58;;;;;;;10.44;60.01;97097.16;5125635;29;20058;-84
2022/03/31 09:32:25;;;;;;;38.08;22.70;;;;;;;10.49;59.17;97084.13;5097034;29;20051;-83
2022/03/31 09:35:21;;;;;;;40.83;22.50;;;;;;;10.09;58.18;97020.16;5110569;29;20099;-83
2022/03/31 09:38:12;;;;;;;44.97;24.35;;;;;;;10.41;59.71;97102.81;5111069;29;20182;-83
2022/03/31 09:41:27;;;;;;;34.90;21.42;;;;;;;10.63;59.00;97100.97;5113642;29;20051;-83
2022/03/31 09:44:22;;;;;;;38.20;22.05;;;;;;;10.95;58.57;97084.53;5129288;29;20296;-83
2022/03/31 09:47:12;;;;;;;35.60;21.63;;;;;;;10.91;58.65;97075.31;5112538;29;20815;-84
2022/03/31 09:50:03;;;;;;;38.22;22.10;;;;;;;11.25;58.28;97081.66;5092878;29;20059;-82
2022/03/31 09:52:53;;;;;;;36.13;21.85;;;;;;;11.48;56.82;97073.41;5104659;29;20062;-83
2022/03/31 09:55:44;;;;;;;33.75;20.90;;;;;;;11.59;58.57;97088.81;5119732;29;20058;-83
2022/03/31 09:58:38;;;;;;;34.30;21.50;;;;;;;12.31;54.76;97070.69;5112225;29;20417;-83
2022/03/31 10:01:29;;;;;;;32.67;20.37;;;;;;;12.80;54.08;97056.19;5113377;29;20422;-83
2022/03/31 10:04:20;;;;;;;36.38;20.65;;;;;;;13.22;52.56;97064.75;5129314;29;20051;-83
2022/03/31 10:07:17;;;;;;;38.13;21.63;;;;;;;13.11;52.58;97029.78;5119338;29;20058;-83
2022/03/31 10:10:08;;;;;;;35.28;21.08;;;;;;;13.07;54.11;97038.38;5112100;29;20081;-84
2022/03/31 10:13:12;;;;;;;30.67;20.58;;;;;;;13.54;53.76;97079.88;5113070;29;20425;-83
2022/03/31 10:16:09;;;;;;;30.63;19.58;;;;;;;12.44;54.51;97065.38;5108938;29;20061;-83
2022/03/31 10:19:00;;;;;;;31.80;20.63;;;;;;;12.63;54.16;97077.88;5112575;29;20110;-83
2022/03/31 10:25:34;;;;;;;35.67;20.88;;;;;;;12.05;55.60;97026.28;5117811;28;20062;-82
2022/03/31 10:28:25;;;;;;;30.25;20.15;;;;;;;12.54;54.80;97044.53;5107787;29;20126;-83
2022/03/31 10:31:16;;;;;;;34.38;20.35;;;;;;;11.95;56.36;97055.88;5099805;29;20047;-83
2022/03/31 10:34:08;;;;;;;32.85;20.35;;;;;;;11.80;55.33;97056.00;5112224;29;20066;-83
2022/03/31 10:37:05;;;;;;;34.42;20.17;;;;;;;11.28;58.58;97034.34;5110577;28;20439;-83
2022/03/31 10:39:56;;;;;;;34.03;20.38;;;;;;;12.11;57.63;97031.59;5114774;29;20063;-84
2022/03/31 10:42:55;;;;;;;31.88;19.20;;;;;;;11.98;56.44;97052.81;5112435;29;20130;-83
2022/03/31 10:45:45;;;;;;;35.78;20.75;;;;;;;11.88;55.95;97029.28;5097137;28;20058;-83
2022/03/31 10:48:36;;;;;;;35.92;20.70;;;;;;;11.67;58.32;97035.53;5111954;29;20465;-83
2022/03/31 10:51:34;;;;;;;31.73;19.45;;;;;;;12.10;57.07;97048.56;5111319;29;20074;-84
2022/03/31 10:54:33;;;;;;;35.50;21.55;;;;;;;12.34;55.29;97017.94;5125172;29;20066;-84
2022/03/31 10:57:24;;;;;;;32.40;19.33;;;;;;;12.25;55.20;97048.41;5110971;29;20552;-83
2022/03/31 11:00:14;;;;;;;29.55;18.98;;;;;;;12.95;53.87;97043.50;5110030;29;20530;-83
2022/03/31 11:03:06;;;;;;;33.35;20.95;;;;;;;12.44;53.70;97023.66;5110429;29;20050;-83
2022/03/31 11:06:13;;;;;;;33.30;20.85;;;;;;;12.62;55.42;97044.34;5093417;29;20114;-84
2022/03/31 11:09:06;;;;;;;34.05;20.33;;;;;;;12.46;53.32;97015.50;5108611;29;20108;-83
2022/03/31 11:11:59;;;;;;;33.00;19.25;;;;;;;13.13;55.15;97019.72;5124339;28;20457;-83
2022/03/31 11:15:16;;;;;;;32.10;19.20;;;;;;;13.02;54.24;97003.59;5124739;29;20059;-83
2022/03/31 11:18:07;;;;;;;33.72;20.55;;;;;;;13.15;54.92;97001.72;5137642;28;20653;-83
2022/03/31 11:21:01;;;;;;;30.98;18.98;;;;;;;13.14;52.93;97013.41;5124449;29;20118;-83
2022/03/31 11:23:53;;;;;;;34.42;19.17;;;;;;;12.78;54.54;97016.53;5123710;28;20505;-83
2022/03/31 11:26:44;;;;;;;33.67;18.80;;;;;;;13.06;53.34;97007.47;5128968;28;20055;-83
2022/03/31 11:29:35;;;;;;;33.78;19.60;;;;;;;13.34;54.02;97021.38;5108381;29;20051;-82
2022/03/31 11:32:32;;;;;;;31.65;19.65;;;;;;;12.91;53.70;97015.66;5109369;29;20073;-83
2022/03/31 11:35:28;;;;;;;30.45;19.35;;;;;;;13.04;52.68;97001.53;5109796;29;20129;-83
2022/03/31 11:38:19;;;;;;;30.60;19.05;;;;;;;12.48;55.22;97008.13;5104884;29;20086;-83
2022/03/31 11:41:09;;;;;;;33.40;19.15;;;;;;;12.74;55.25;96999.31;5110058;29;20047;-83
2022/03/31 11:43:59;;;;;;;31.40;19.13;;;;;;;12.69;55.36;96986.66;5110033;29;20110;-83
2022/03/31 11:46:50;;;;;;;31.50;19.15;;;;;;;12.79;54.53;96977.44;5125649;29;20109;-83
2022/03/31 11:49:42;;;;;;;35.88;21.02;;;;;;;12.89;56.17;96997.28;5110585;29;20422;-83
2022/03/31 11:52:33;;;;;;;33.15;19.85;;;;;;;12.62;54.03;96961.94;5111041;29;20051;-83
2022/03/31 11:55:24;;;;;;;32.95;20.45;;;;;;;12.31;56.22;96997.09;5097759;29;20059;-83
2022/03/31 11:58:14;;;;;;;32.22;18.95;;;;;;;12.11;56.33;96975.81;5133170;28;20102;-83
2022/03/31 12:01:05;;;;;;;36.90;20.50;;;;;;;12.84;54.68;96977.63;5122203;29;20055;-83
2022/03/31 12:03:55;;;;;;;31.50;19.60;;;;;;;12.49;54.89;96950.50;5113892;29;20050;-83
2022/03/31 12:06:51;;;;;;;30.85;19.13;;;;;;;11.90;57.80;96976.81;5128478;28;20062;-83
2022/03/31 12:09:42;;;;;;;31.27;19.65;;;;;;;12.03;57.33;96980.53;5128396;29;20560;-83
2022/03/31 12:12:32;;;;;;;32.05;20.63;;;;;;;12.51;56.03;96983.78;5106372;29;20502;-83
2022/03/31 12:15:29;;;;;;;32.92;19.88;;;;;;;12.26;56.03;96974.81;5102347;29;20145;-83
2022/03/31 12:18:19;;;;;;;28.92;19.10;;;;;;;11.83;57.18;96975.13;5127101;29;20130;-83
2022/03/31 12:21:10;;;;;;;30.20;19.55;;;;;;;11.64;57.79;96958.94;5116630;29;20505;-84
2022/03/31 12:24:09;;;;;;;31.88;18.75;;;;;;;11.66;56.98;96964.88;5113354;28;20506;-83
2022/03/31 12:27:06;;;;;;;30.65;19.17;;;;;;;12.13;56.46;96957.03;5109823;29;20438;-84
2022/03/31 12:30:02;;;;;;;31.80;18.92;;;;;;;11.85;56.37;96957.19;5131277;29;20074;-84
2022/03/31 12:32:55;;;;;;;32.38;19.35;;;;;;;11.36;57.67;96953.78;5118883;29;20110;-83
2022/03/31 12:35:57;;;;;;;31.95;19.40;;;;;;;11.33;57.10;96937.44;5134715;29;20588;-84
2022/03/31 12:38:50;;;;;;;32.47;19.10;;;;;;;11.84;56.67;96928.97;5118833;29;20144;-83
2022/03/31 12:41:42;;;;;;;29.90;18.98;;;;;;;11.81;56.33;96942.66;5116218;29;20522;-83
2022/03/31 12:44:39;;;;;;;30.25;18.90;;;;;;;12.54;54.83;96962.13;5122369;29;20062;-84
2022/03/31 12:47:29;;;;;;;33.42;19.27;;;;;;;12.36;54.33;96946.81;5104677;29;20059;-84
2022/03/31 12:50:25;;;;;;;35.22;19.98;;;;;;;11.39;56.80;96957.84;5112039;29;20517;-85
2022/03/31 12:53:16;;;;;;;30.52;18.55;;;;;;;11.07;57.90;96962.00;5111522;29;20095;-84
2022/03/31 12:56:06;;;;;;;35.78;21.13;;;;;;;11.20;58.55;96973.50;5116453;29;20066;-84
2022/03/31 12:58:57;;;;;;;35.47;20.80;;;;;;;11.47;57.40;96955.03;5115328;29;20106;-84
2022/03/31 13:01:58;;;;;;;33.17;20.80;;;;;;;11.39;57.14;96958.69;5130069;28;20055;-84
2022/03/31 13:04:48;;;;;;;39.50;21.77;;;;;;;11.41;57.04;96935.41;5119785;29;20106;-83
2022/03/31 13:07:39;;;;;;;35.10;20.38;;;;;;;11.13;57.53;96963.88;5113018;29;20130;-83
2022/03/31 13:10:30;;;;;;;43.03;21.67;;;;;;;10.84;58.96;96941.09;5125573;28;20058;-84
2022/03/31 13:13:20;;;;;;;39.90;22.25;;;;;;;11.19;58.07;96963.91;5106289;29;20453;-83
2022/03/31 13:16:31;;;;;;;40.70;21.50;;;;;;;10.67;58.99;96965.25;5104767;29;20062;-83
2022/03/31 13:19:22;;;;;;;40.90;23.55;;;;;;;10.70;59.06;96937.53;5112203;29;20553;-83
2022/03/31 13:22:20;;;;;;;40.60;22.58;;;;;;;10.76;59.14;96926.13;5110406;29;20083;-83